Time;durP1;ratioP1;P1;durP2;ratioP2;P2;SDS_P1;SDS_P2;PMS_P1;PMS_P2;Temp;Humidity;BMP_temperature;BMP_pressure;BME280_temperature;BME280_humidity;BME280_pressure;Samples;Min_cycle;Max_cycle;Signal;HPM_P1;HPM_P2
2024/04/12 00:01:01;;;;;;;3.10;1.40;;;;;;;;;;5444683;26;20014;-77
2024/04/12 00:03:27;;;;;;;1.48;1.27;;;;;;;;;;5437965;26;20047;-78
2024/04/12 00:05:54;;;;;;;5.10;1.60;;;;;;;;;;5435131;26;20003;-79
2024/04/12 00:08:21;;;;;;;7.55;1.92;;;;;;;;;;5439039;26;20018;-78
2024/04/12 00:10:46;;;;;;;4.57;1.67;;;;;;;;;;5431277;26;20042;-79
2024/04/12 00:13:12;;;;;;;2.67;1.60;;;;;;;;;;5427909;26;20117;-79
2024/04/12 00:15:38;;;;;;;5.10;1.70;;;;;;;;;;5409651;26;20003;-80
2024/04/12 00:18:05;;;;;;;3.80;1.60;;;;;;;;;;5423450;26;20051;-79
2024/04/12 00:20:31;;;;;;;3.20;1.45;;;;;;;;;;5418805;26;20040;-78
2024/04/12 00:22:57;;;;;;;2.47;1.63;;;;;;;;;;5409765;26;20048;-80
2024/04/12 00:25:23;;;;;;;2.72;1.58;;;;;;;;;;5423713;26;20011;-79
2024/04/12 00:27:49;;;;;;;4.55;1.95;;;;;;;;;;5375617;26;20003;-80
2024/04/12 00:30:37;;;;;;;3.25;1.73;;;;;;;;;;5404890;26;20480;-79
2024/04/12 00:33:09;;;;;;;2.63;2.20;;;;;;;;;;5419623;26;20053;-80
2024/04/12 00:35:38;;;;;;;3.30;1.20;;;;;;;;;;5429188;26;20010;-79
2024/04/12 00:38:09;;;;;;;1.77;1.08;;;;;;;;;;5416419;26;19995;-79
2024/04/12 00:40:45;;;;;;;3.17;2.22;;;;;;;;;;5453269;26;20006;-79
2024/04/12 00:43:15;;;;;;;1.27;0.75;;;;;;;;;;5401832;26;20013;-79
2024/04/12 00:45:49;;;;;;;0.90;0.70;;;;;;;;;;5405398;26;20018;-80
2024/04/12 00:48:15;;;;;;;5.68;2.30;;;;;;;;;;5427164;26;20119;-80
2024/04/12 00:50:46;;;;;;;5.45;2.25;;;;;;;;;;5446827;26;19999;-80
2024/04/12 00:53:22;;;;;;;;;;;;;;;;;;5414055;26;19995;-80
2024/04/12 00:56:00;;;;;;;5.82;2.40;;;;;;;;;;5405628;26;19932;-79
2024/04/12 00:58:34;;;;;;;5.00;2.15;;;;;;;;;;5426907;26;19999;-79
2024/04/12 01:01:15;;;;;;;3.08;1.88;;;;;;;;;;5447760;26;20013;-79
2024/04/12 01:03:45;;;;;;;3.43;2.10;;;;;;;;;;5438267;26;20665;-79
2024/04/12 01:06:24;;;;;;;3.45;1.80;;;;;;;;;;5424119;26;20277;-79
2024/04/12 01:08:51;;;;;;;6.10;2.30;;;;;;;;;;5382685;26;20011;-79
2024/04/12 01:11:21;;;;;;;7.68;3.00;;;;;;;;;;5409938;26;20366;-79
2024/04/12 01:13:50;;;;;;;5.65;2.65;;;;;;;;;;5425401;26;20022;-79
2024/04/12 01:16:16;;;;;;;2.28;1.73;;;;;;;;;;5418094;26;19998;-79
2024/04/12 01:18:44;;;;;;;6.30;2.90;;;;;;;;;;5430238;26;20766;-79
2024/04/12 01:21:10;;;;;;;6.47;3.60;;;;;;;;;;5444060;26;20476;-79
2024/04/12 01:23:43;;;;;;;4.10;2.05;;;;;;;;;;5418187;26;20013;-79
2024/04/12 01:26:10;;;;;;;5.72;3.40;;;;;;;;;;5435124;26;20097;-80
2024/04/12 01:28:43;;;;;;;7.07;4.10;;;;;;;;;;5446394;26;20026;-79
2024/04/12 01:31:14;;;;;;;6.47;3.83;;;;;;;;;;5454908;26;19994;-79
2024/04/12 01:33:41;;;;;;;5.10;2.13;;;;;;;;;;5441637;26;19995;-78
2024/04/12 01:36:10;;;;;;;2.33;1.55;;;;;;;;;;5411582;26;20072;-79
2024/04/12 01:38:38;;;;;;;7.63;4.18;;;;;;;;;;5408630;26;19995;-79
2024/04/12 01:41:06;;;;;;;9.48;4.43;;;;;;;;;;5436096;26;20010;-79
2024/04/12 01:43:36;;;;;;;5.70;3.90;;;;;;;;;;5441702;26;20015;-78
2024/04/12 01:46:07;;;;;;;7.22;3.47;;;;;;;;;;5433521;26;19998;-78
2024/04/12 01:48:36;;;;;;;9.13;4.65;;;;;;;;;;5435548;26;20055;-80
2024/04/12 01:51:04;;;;;;;8.18;4.55;;;;;;;;;;5427299;26;20010;-80
2024/04/12 01:53:37;;;;;;;7.88;4.85;;;;;;;;;;5405540;26;20076;-79
2024/04/12 01:56:09;;;;;;;7.10;4.30;;;;;;;;;;5433427;26;20046;-79
2024/04/12 01:58:39;;;;;;;8.18;4.28;;;;;;;;;;5429275;26;19999;-80
2024/04/12 02:01:06;;;;;;;7.18;4.85;;;;;;;;;;5450460;26;20051;-79
2024/04/12 02:03:32;;;;;;;8.75;4.03;;;;;;;;;;5412264;26;19996;-79
2024/04/12 02:06:03;;;;;;;7.78;4.60;;;;;;;;;;5412082;26;20068;-78
2024/04/12 02:08:28;;;;;;;9.45;4.80;;;;;;;;;;5448178;26;19995;-78
2024/04/12 02:10:54;;;;;;;8.70;4.70;;;;;;;;;;5399871;26;19999;-78
2024/04/12 02:13:22;;;;;;;7.35;5.13;;;;;;;;;;5435804;26;20045;-78
2024/04/12 02:15:51;;;;;;;7.97;4.55;;;;;;;;;;5415812;26;19996;-79
2024/04/12 02:18:20;;;;;;;7.60;4.15;;;;;;;;;;5428324;26;20003;-78
2024/04/12 02:20:46;;;;;;;8.48;4.85;;;;;;;;;;5424838;26;20051;-80
2024/04/12 02:23:18;;;;;;;7.75;3.58;;;;;;;;;;5412746;26;20023;-80
2024/04/12 02:25:44;;;;;;;6.95;4.10;;;;;;;;;;5420353;26;20061;-79
2024/04/12 02:28:11;;;;;;;6.05;3.40;;;;;;;;;;5429372;26;20010;-77
2024/04/12 02:30:54;;;;;;;6.88;3.00;;;;;;;;;;5397584;26;20049;-80
2024/04/12 02:33:25;;;;;;;4.30;2.83;;;;;;;;;;5430351;26;20343;-78
2024/04/12 02:36:02;;;;;;;7.00;2.30;;;;;;;;;;5394549;26;20013;-81
2024/04/12 02:38:28;;;;;;;3.20;2.05;;;;;;;;;;5405725;26;20117;-78
2024/04/12 02:40:57;;;;;;;4.38;2.10;;;;;;;;;;5404641;26;20078;-79
2024/04/12 02:43:24;;;;;;;3.15;2.20;;;;;;;;;;5425054;26;19994;-80
2024/04/12 02:46:11;;;;;;;3.45;2.10;;;;;;;;;;5406634;26;20001;-80
2024/04/12 02:48:40;;;;;;;4.70;2.03;;;;;;;;;;5386355;26;20082;-79
2024/04/12 02:51:06;;;;;;;4.25;2.58;;;;;;;;;;5437739;26;20006;-80
2024/04/12 02:53:32;;;;;;;4.75;2.45;;;;;;;;;;5437349;26;20129;-79
2024/04/12 02:56:01;;;;;;;3.95;2.97;;;;;;;;;;5413271;26;20015;-80
2024/04/12 02:58:38;;;;;;;5.45;3.50;;;;;;;;;;5429924;26;20006;-80
2024/04/12 03:01:12;;;;;;;4.00;3.05;;;;;;;;;;5407551;26;20000;-81
2024/04/12 03:03:45;;;;;;;5.75;2.58;;;;;;;;;;5441286;26;20327;-78
2024/04/12 03:06:11;;;;;;;6.35;3.75;;;;;;;;;;5446880;26;20009;-80
2024/04/12 03:08:38;;;;;;;6.18;3.72;;;;;;;;;;5435964;26;20020;-79
2024/04/12 03:11:14;;;;;;;9.45;4.72;;;;;;;;;;5401189;26;20004;-78
2024/04/12 03:13:41;;;;;;;8.00;4.00;;;;;;;;;;5431321;26;20008;-77
2024/04/12 03:16:13;;;;;;;5.82;3.20;;;;;;;;;;5429187;26;20010;-79
2024/04/12 03:18:44;;;;;;;3.28;2.88;;;;;;;;;;5441469;26;20010;-78
2024/04/12 03:21:14;;;;;;;5.28;2.88;;;;;;;;;;5430409;26;20161;-80
2024/04/12 03:23:43;;;;;;;5.53;2.75;;;;;;;;;;5424129;26;20071;-80
2024/04/12 03:26:12;;;;;;;5.60;3.75;;;;;;;;;;5440377;26;19999;-76
2024/04/12 03:28:38;;;;;;;2.03;1.00;;;;;;;;;;5437137;26;19999;-80
2024/04/12 03:31:07;;;;;;;2.42;1.70;;;;;;;;;;5398234;26;20988;-79
2024/04/12 03:33:42;;;;;;;3.50;2.05;;;;;;;;;;5412104;26;20055;-79
2024/04/12 03:36:28;;;;;;;5.32;2.40;;;;;;;;;;5430246;26;19995;-80
2024/04/12 03:41:38;;;;;;;2.15;1.88;;;;;;;;;;5426455;26;20006;-79
2024/04/12 03:44:08;;;;;;;4.65;2.60;;;;;;;;;;5397547;26;20019;-77
2024/04/12 03:46:42;;;;;;;3.97;2.90;;;;;;;;;;5440076;26;20506;-80
2024/04/12 03:49:13;;;;;;;3.65;1.85;;;;;;;;;;5443359;26;20084;-78
2024/04/12 03:51:44;;;;;;;3.30;2.75;;;;;;;;;;5436971;26;20022;-78
2024/04/12 03:54:21;;;;;;;2.45;1.73;;;;;;;;;;5448230;26;20716;-79
2024/04/12 03:56:50;;;;;;;3.53;1.85;;;;;;;;;;5408397;26;20032;-78
2024/04/12 03:59:20;;;;;;;1.20;1.10;;;;;;;;;;5431185;26;19995;-78
2024/04/12 04:01:46;;;;;;;5.43;2.60;;;;;;;;;;5432218;26;20003;-81
2024/04/12 04:04:17;;;;;;;2.00;1.25;;;;;;;;;;5411722;26;20057;-78
2024/04/12 04:06:48;;;;;;;1.00;0.93;;;;;;;;;;5423851;26;20731;-76
2024/04/12 04:09:19;;;;;;;2.53;1.00;;;;;;;;;;5447823;26;20002;-80
2024/04/12 04:11:45;;;;;;;1.92;1.08;;;;;;;;;;5394374;26;20009;-79
2024/04/12 04:14:13;;;;;;;2.03;1.45;;;;;;;;;;5434960;26;20627;-79
2024/04/12 04:16:39;;;;;;;1.75;1.05;;;;;;;;;;5432815;26;20378;-80
2024/04/12 04:19:12;;;;;;;2.63;1.85;;;;;;;;;;5425220;26;19995;-80
2024/04/12 04:21:41;;;;;;;5.05;2.85;;;;;;;;;;5435513;26;20367;-78
2024/04/12 04:24:10;;;;;;;1.65;1.02;;;;;;;;;;5445938;26;20002;-78
2024/04/12 04:26:42;;;;;;;1.58;1.33;;;;;;;;;;5427005;26;20007;-80
2024/04/12 04:29:09;;;;;;;2.97;1.95;;;;;;;;;;5436698;26;20031;-77
2024/04/12 04:31:45;;;;;;;6.05;3.58;;;;;;;;;;5434219;26;20011;-79
2024/04/12 04:34:12;;;;;;;5.43;4.10;;;;;;;;;;5427313;26;20010;-79
2024/04/12 04:36:41;;;;;;;4.50;2.75;;;;;;;;;;5442089;26;19991;-78
2024/04/12 04:39:07;;;;;;;9.02;4.68;;;;;;;;;;5435578;26;20002;-77
2024/04/12 04:41:33;;;;;;;4.97;3.90;;;;;;;;;;5426946;26;20000;-79
2024/04/12 04:43:59;;;;;;;5.78;3.80;;;;;;;;;;5439112;26;19991;-78
2024/04/12 04:46:27;;;;;;;5.05;4.30;;;;;;;;;;5445754;26;20509;-81
2024/04/12 04:48:53;;;;;;;6.55;3.00;;;;;;;;;;5409491;26;19995;-78
2024/04/12 04:51:19;;;;;;;17.38;5.22;;;;;;;;;;5425121;26;20032;-80
2024/04/12 04:53:46;;;;;;;8.60;4.63;;;;;;;;;;5430818;26;19990;-81
2024/04/12 04:56:12;;;;;;;5.78;3.65;;;;;;;;;;5354136;26;20023;-78
2024/04/12 04:58:41;;;;;;;9.23;3.00;;;;;;;;;;5415400;26;20011;-77
2024/04/12 05:01:11;;;;;;;7.00;2.70;;;;;;;;;;5405269;26;19999;-76
2024/04/12 05:03:37;;;;;;;22.77;3.22;;;;;;;;;;5411967;26;20102;-77
2024/04/12 05:06:06;;;;;;;6.25;3.17;;;;;;;;;;5422364;26;19995;-77
2024/04/12 05:08:35;;;;;;;5.50;3.08;;;;;;;;;;5415039;26;19994;-76
2024/04/12 05:11:05;;;;;;;6.53;3.63;;;;;;;;;;5390037;26;19999;-77
2024/04/12 05:13:37;;;;;;;4.75;2.85;;;;;;;;;;5420961;26;20148;-77
2024/04/12 05:16:09;;;;;;;6.75;4.22;;;;;;;;;;5393187;26;19999;-78
2024/04/12 05:18:36;;;;;;;7.78;3.25;;;;;;;;;;5400774;26;20025;-77
2024/04/12 05:21:03;;;;;;;4.00;3.60;;;;;;;;;;5397857;26;20007;-77
2024/04/12 05:23:29;;;;;;;3.80;2.10;;;;;;;;;;5419970;26;20014;-75
2024/04/12 05:25:54;;;;;;;6.68;4.13;;;;;;;;;;5421124;26;20007;-77
2024/04/12 05:28:20;;;;;;;7.10;3.70;;;;;;;;;;5396000;26;20031;-77
2024/04/12 05:30:47;;;;;;;8.35;3.53;;;;;;;;;;5419517;26;20010;-77
2024/04/12 05:33:16;;;;;;;5.03;4.15;;;;;;;;;;5426470;26;20010;-78
2024/04/12 05:35:42;;;;;;;6.10;4.35;;;;;;;;;;5438993;26;19999;-77
2024/04/12 05:38:08;;;;;;;5.20;3.90;;;;;;;;;;5437782;26;20009;-77
2024/04/12 05:40:52;;;;;;;1.90;1.70;;;;;;;;;;5413927;26;20003;-76
2024/04/12 05:43:18;;;;;;;5.85;3.97;;;;;;;;;;5440481;26;20426;-78
2024/04/12 05:45:47;;;;;;;5.00;3.45;;;;;;;;;;5412534;26;19999;-78
2024/04/12 05:48:13;;;;;;;6.97;3.00;;;;;;;;;;5443676;26;20002;-77
2024/04/12 05:50:46;;;;;;;8.00;4.43;;;;;;;;;;5435096;26;20046;-77
2024/04/12 05:53:12;;;;;;;5.38;3.53;;;;;;;;;;5441926;26;20007;-78
2024/04/12 05:55:44;;;;;;;5.60;4.05;;;;;;;;;;5422389;26;20412;-76
2024/04/12 05:58:16;;;;;;;8.73;4.18;;;;;;;;;;5384728;26;20357;-76
2024/04/12 06:00:42;;;;;;;7.38;3.85;;;;;;;;;;5407404;26;20107;-76
2024/04/12 06:03:14;;;;;;;5.75;4.00;;;;;;;;;;5430560;26;20226;-77
2024/04/12 06:05:55;;;;;;;9.15;3.80;;;;;;;;;;5418453;26;20010;-77
2024/04/12 06:08:24;;;;;;;5.40;3.35;;;;;;;;;;5397431;26;20787;-77
2024/04/12 06:10:50;;;;;;;6.32;3.35;;;;;;;;;;5413475;26;19999;-77
2024/04/12 06:13:17;;;;;;;7.15;4.00;;;;;;;;;;5431470;26;19998;-76
2024/04/12 06:15:43;;;;;;;5.60;3.53;;;;;;;;;;5428211;26;20022;-76
2024/04/12 06:18:09;;;;;;;3.78;3.25;;;;;;;;;;5402107;26;19995;-77
2024/04/12 06:20:35;;;;;;;4.68;3.58;;;;;;;;;;5419204;26;20003;-78
2024/04/12 06:23:06;;;;;;;4.75;3.20;;;;;;;;;;5445054;26;20046;-78
2024/04/12 06:25:44;;;;;;;6.45;3.15;;;;;;;;;;5398060;26;19999;-77
2024/04/12 06:28:14;;;;;;;6.15;3.08;;;;;;;;;;5433746;26;20008;-77
2024/04/12 06:30:40;;;;;;;4.80;3.22;;;;;;;;;;5431249;26;20050;-78
2024/04/12 06:33:06;;;;;;;3.88;2.90;;;;;;;;;;5417651;26;20000;-78
2024/04/12 06:35:32;;;;;;;4.10;3.10;;;;;;;;;;5420348;26;20006;-76
2024/04/12 06:37:58;;;;;;;3.97;2.10;;;;;;;;;;5399527;26;20014;-77
2024/04/12 06:40:28;;;;;;;2.45;2.22;;;;;;;;;;5435415;26;20003;-77
2024/04/12 06:43:05;;;;;;;4.32;2.53;;;;;;;;;;5421116;26;20000;-77
2024/04/12 06:45:43;;;;;;;7.18;2.75;;;;;;;;;;5424198;26;20022;-77
2024/04/12 06:48:16;;;;;;;5.60;2.58;;;;;;;;;;5430171;26;20010;-77
2024/04/12 06:50:55;;;;;;;3.35;2.75;;;;;;;;;;5405342;26;19999;-76
2024/04/12 06:53:21;;;;;;;6.55;2.80;;;;;;;;;;5388264;26;20773;-77
2024/04/12 06:55:49;;;;;;;4.57;2.60;;;;;;;;;;5409188;26;20053;-76
2024/04/12 06:58:17;;;;;;;5.45;2.83;;;;;;;;;;5399352;26;20007;-76
2024/04/12 07:00:46;;;;;;;4.78;2.28;;;;;;;;;;5419285;26;20905;-76
2024/04/12 07:03:15;;;;;;;3.90;1.90;;;;;;;;;;5416210;26;20021;-78
2024/04/12 07:05:47;;;;;;;6.30;2.13;;;;;;;;;;5430825;26;20058;-77
2024/04/12 07:08:16;;;;;;;3.40;2.10;;;;;;;;;;5423443;26;20009;-77
2024/04/12 07:10:42;;;;;;;2.95;2.17;;;;;;;;;;5423297;26;20054;-77
2024/04/12 07:13:07;;;;;;;4.45;2.35;;;;;;;;;;5438559;26;21158;-77
2024/04/12 07:15:33;;;;;;;4.93;2.50;;;;;;;;;;5435711;26;19996;-76
2024/04/12 07:18:02;;;;;;;1.77;1.20;;;;;;;;;;5405513;26;20008;-78
2024/04/12 07:20:33;;;;;;;7.38;2.08;;;;;;;;;;5393165;26;19992;-77
2024/04/12 07:22:58;;;;;;;1.73;1.52;;;;;;;;;;5381687;26;20637;-77
2024/04/12 07:25:24;;;;;;;4.38;1.90;;;;;;;;;;5406421;26;20117;-77
2024/04/12 07:27:53;;;;;;;6.63;2.13;;;;;;;;;;5401518;26;19999;-78
2024/04/12 07:30:20;;;;;;;4.60;1.67;;;;;;;;;;5403432;26;20019;-78
2024/04/12 07:32:46;;;;;;;4.00;2.13;;;;;;;;;;5422083;26;20075;-78
2024/04/12 07:35:26;;;;;;;2.75;1.10;;;;;;;;;;5425239;26;20019;-79
2024/04/12 07:37:59;;;;;;;3.47;1.80;;;;;;;;;;5382553;26;19995;-78
2024/04/12 07:40:30;;;;;;;3.80;1.92;;;;;;;;;;5401653;26;19995;-78
2024/04/12 07:42:57;;;;;;;;;;;;;;;;;;5412806;26;19995;-78
2024/04/12 07:45:24;;;;;;;1.63;1.00;;;;;;;;;;5431164;26;19962;-77
2024/04/12 07:48:11;;;;;;;2.85;1.17;;;;;;;;;;5409920;26;20000;-77
2024/04/12 07:50:39;;;;;;;3.22;1.60;;;;;;;;;;5399000;26;19999;-76
2024/04/12 07:53:21;;;;;;;7.32;2.13;;;;;;;;;;5435923;26;20028;-77
2024/04/12 07:55:55;;;;;;;4.95;2.05;;;;;;;;;;5440414;26;19993;-78
2024/04/12 07:58:26;;;;;;;2.55;1.63;;;;;;;;;;5449808;26;20077;-77
2024/04/12 08:00:54;;;;;;;3.85;1.90;;;;;;;;;;5431294;26;20060;-77
2024/04/12 08:03:19;;;;;;;1.80;1.00;;;;;;;;;;5418839;26;20010;-79
2024/04/12 08:06:03;;;;;;;4.45;1.45;;;;;;;;;;5405062;26;21572;-77
2024/04/12 08:08:44;;;;;;;2.63;1.35;;;;;;;;;;5442427;26;20009;-77
2024/04/12 08:11:32;;;;;;;;;;;;;;;;;;5381687;26;20084;-78
2024/04/12 08:14:06;;;;;;;1.73;1.00;;;;;;;;;;5393001;26;19932;-78
2024/04/12 08:16:46;;;;;;;4.40;1.00;;;;;;;;;;5411199;26;20081;-79
2024/04/12 08:19:13;;;;;;;3.60;1.10;;;;;;;;;;5407971;26;20022;-78
2024/04/12 08:21:43;;;;;;;1.75;0.68;;;;;;;;;;5435307;26;20053;-78
2024/04/12 08:24:10;;;;;;;4.53;1.23;;;;;;;;;;5400683;26;20008;-78
2024/04/12 08:26:45;;;;;;;3.15;1.15;;;;;;;;;;5421607;26;20021;-77
2024/04/12 08:29:20;;;;;;;3.40;1.10;;;;;;;;;;5392323;26;20006;-78
2024/04/12 08:31:48;;;;;;;5.82;1.27;;;;;;;;;;5442095;26;19994;-79
2024/04/12 08:34:16;;;;;;;1.30;0.88;;;;;;;;;;5454858;26;20011;-77
2024/04/12 08:36:49;;;;;;;3.47;1.10;;;;;;;;;;5401680;26;19996;-77
2024/04/12 08:39:29;;;;;;;3.72;1.10;;;;;;;;;;5425194;26;20002;-78
2024/04/12 08:42:04;;;;;;;2.03;1.20;;;;;;;;;;5390583;26;20136;-78
2024/04/12 08:44:30;;;;;;;3.30;1.38;;;;;;;;;;5434777;26;20022;-76
2024/04/12 08:49:53;;;;;;;1.75;0.88;;;;;;;;;;5428317;26;20014;-78
2024/04/12 08:52:29;;;;;;;9.68;1.40;;;;;;;;;;5362802;26;19991;-78
2024/04/12 08:54:56;;;;;;;1.48;0.80;;;;;;;;;;5389018;26;20010;-78
2024/04/12 08:57:23;;;;;;;2.40;1.20;;;;;;;;;;5428207;26;20003;-78
2024/04/12 08:59:48;;;;;;;2.53;1.00;;;;;;;;;;5435227;26;20002;-79
2024/04/12 09:02:20;;;;;;;1.67;0.70;;;;;;;;;;5431719;26;20014;-78
2024/04/12 09:04:45;;;;;;;3.22;1.20;;;;;;;;;;5422473;26;20010;-78
2024/04/12 09:07:12;;;;;;;3.15;0.90;;;;;;;;;;5388284;26;20015;-77
2024/04/12 09:09:38;;;;;;;0.93;0.75;;;;;;;;;;5429591;26;19994;-78
2024/04/12 09:12:12;;;;;;;2.17;1.00;;;;;;;;;;5444217;26;20014;-79
2024/04/12 09:14:40;;;;;;;4.97;1.25;;;;;;;;;;5407167;26;20010;-78
2024/04/12 09:17:14;;;;;;;2.05;1.10;;;;;;;;;;5427852;26;20059;-77
2024/04/12 09:19:40;;;;;;;2.45;0.90;;;;;;;;;;5452275;26;20009;-79
2024/04/12 09:22:09;;;;;;;1.77;0.98;;;;;;;;;;5428131;26;20046;-79
2024/04/12 09:24:39;;;;;;;1.92;0.88;;;;;;;;;;5446760;26;20011;-78
2024/04/12 09:27:09;;;;;;;3.45;1.60;;;;;;;;;;5429471;26;20003;-77
2024/04/12 09:29:43;;;;;;;4.78;1.38;;;;;;;;;;5439440;26;20490;-77
2024/04/12 09:34:55;;;;;;;2.88;1.50;;;;;;;;;;5382342;26;20078;-78
2024/04/12 09:37:38;;;;;;;1.73;1.02;;;;;;;;;;5376672;26;19995;-78
2024/04/12 09:40:16;;;;;;;2.00;1.20;;;;;;;;;;5436248;26;20002;-77
2024/04/12 09:45:27;;;;;;;1.17;0.80;;;;;;;;;;5428715;26;20043;-78
2024/04/12 10:37:54;;;;;;;4.60;1.70;;;;;;;;;;5405416;26;20005;-78
2024/04/12 10:40:21;;;;;;;4.57;1.60;;;;;;;;;;5423336;26;19999;-78
2024/04/12 10:42:52;;;;;;;4.60;1.88;;;;;;;;;;5446510;26;20017;-77
2024/04/12 10:45:17;;;;;;;3.90;1.38;;;;;;;;;;5414708;26;20000;-78
2024/04/12 10:47:46;;;;;;;3.65;1.30;;;;;;;;;;5397117;26;20035;-79
2024/04/12 10:50:19;;;;;;;1.95;1.50;;;;;;;;;;5431227;26;20008;-77
2024/04/12 10:52:45;;;;;;;4.82;1.45;;;;;;;;;;5405508;26;20008;-79
2024/04/12 10:55:11;;;;;;;3.25;1.50;;;;;;;;;;5401612;26;20015;-79
2024/04/12 10:57:40;;;;;;;2.55;1.02;;;;;;;;;;5424279;26;20017;-77
2024/04/12 11:00:14;;;;;;;3.25;1.45;;;;;;;;;;5409031;26;20043;-79
2024/04/12 11:02:43;;;;;;;3.35;1.48;;;;;;;;;;5393822;26;19995;-77
2024/04/12 11:07:46;;;;;;;3.45;1.52;;;;;;;;;;5419666;26;20010;-78
2024/04/12 11:10:24;;;;;;;1.98;1.30;;;;;;;;;;5436298;26;20006;-78
2024/04/12 11:13:08;;;;;;;2.22;1.30;;;;;;;;;;5416359;26;20000;-79
2024/04/12 11:31:48;;;;;;;2.53;1.45;;;;;;;;;;5403649;26;20872;-78
2024/04/12 11:34:29;;;;;;;3.00;1.55;;;;;;;;;;5401073;26;20003;-78
2024/04/12 11:37:05;;;;;;;2.95;1.35;;;;;;;;;;5391820;26;20007;-79
2024/04/12 11:39:33;;;;;;;3.40;1.50;;;;;;;;;;5433354;26;20011;-79
2024/04/12 11:42:00;;;;;;;4.15;1.95;;;;;;;;;;5408495;26;20004;-79
2024/04/12 11:44:26;;;;;;;3.38;1.48;;;;;;;;;;5435756;26;20007;-79
2024/04/12 11:46:56;;;;;;;3.10;1.50;;;;;;;;;;5403582;26;21697;-78
2024/04/12 11:49:26;;;;;;;4.40;1.80;;;;;;;;;;5402872;26;20041;-79
2024/04/12 11:52:02;;;;;;;3.83;2.00;;;;;;;;;;5389119;26;20017;-79
2024/04/12 11:54:30;;;;;;;2.17;1.33;;;;;;;;;;5400912;26;19999;-78
2024/04/12 11:56:59;;;;;;;5.07;2.00;;;;;;;;;;5387437;26;20000;-78
2024/04/12 11:59:28;;;;;;;1.10;1.00;;;;;;;;;;5390337;26;20003;-78
2024/04/12 12:01:59;;;;;;;5.40;2.13;;;;;;;;;;5418392;26;19999;-79
2024/04/12 12:04:28;;;;;;;3.40;1.50;;;;;;;;;;5407934;26;20009;-78
2024/04/12 12:06:59;;;;;;;2.65;1.20;;;;;;;;;;5432945;26;20005;-79
2024/04/12 12:09:31;;;;;;;4.13;1.40;;;;;;;;;;5398176;26;20026;-79
2024/04/12 12:12:00;;;;;;;2.92;1.02;;;;;;;;;;5398994;26;20007;-79
2024/04/12 12:14:26;;;;;;;2.38;1.88;;;;;;;;;;5424417;26;20006;-79
2024/04/12 12:16:53;;;;;;;2.80;1.90;;;;;;;;;;5431247;26;20006;-79
2024/04/12 12:19:19;;;;;;;3.78;1.88;;;;;;;;;;5393055;26;20071;-79
2024/04/12 12:21:45;;;;;;;1.77;1.65;;;;;;;;;;5448042;26;20002;-79
2024/04/12 12:24:11;;;;;;;2.33;1.40;;;;;;;;;;5433568;26;20006;-79
2024/04/12 12:26:37;;;;;;;1.58;0.80;;;;;;;;;;5423360;26;20000;-79
2024/04/12 12:29:06;;;;;;;4.93;1.70;;;;;;;;;;5422659;26;20014;-79
2024/04/12 12:31:31;;;;;;;3.17;1.52;;;;;;;;;;5421254;26;20040;-79
2024/04/12 12:33:57;;;;;;;3.20;1.80;;;;;;;;;;5433573;26;20072;-79
2024/04/12 12:36:23;;;;;;;24.60;3.15;;;;;;;;;;5431185;26;20021;-79
2024/04/12 12:38:49;;;;;;;2.72;1.65;;;;;;;;;;5436613;26;20010;-79
2024/04/12 12:41:15;;;;;;;4.13;2.58;;;;;;;;;;5402033;26;20652;-79
2024/04/12 12:43:44;;;;;;;4.45;1.90;;;;;;;;;;5414185;26;20034;-79
2024/04/12 12:46:15;;;;;;;1.77;1.67;;;;;;;;;;5438776;26;19998;-79
2024/04/12 12:48:41;;;;;;;4.10;2.28;;;;;;;;;;5411832;26;20007;-80
2024/04/12 12:51:08;;;;;;;2.08;1.38;;;;;;;;;;5425813;26;20003;-79
2024/04/12 12:53:35;;;;;;;3.35;1.83;;;;;;;;;;5453504;26;20002;-77
2024/04/12 12:56:00;;;;;;;2.38;1.30;;;;;;;;;;5434553;26;20010;-79
2024/04/12 12:58:29;;;;;;;4.68;2.78;;;;;;;;;;5423778;26;20011;-77
2024/04/12 13:01:00;;;;;;;4.55;2.35;;;;;;;;;;5402158;26;20008;-79
2024/04/12 13:03:29;;;;;;;1.40;1.30;;;;;;;;;;5399429;26;20010;-79
2024/04/12 13:05:56;;;;;;;1.50;1.40;;;;;;;;;;5405220;26;20000;-79
2024/04/12 13:08:25;;;;;;;3.22;2.00;;;;;;;;;;5422224;26;20044;-79
2024/04/12 13:10:56;;;;;;;2.97;1.83;;;;;;;;;;5435404;26;19995;-79
2024/04/12 13:13:26;;;;;;;4.00;2.40;;;;;;;;;;5396116;26;20011;-77
2024/04/12 13:15:55;;;;;;;4.13;2.10;;;;;;;;;;5427182;26;20367;-79
2024/04/12 13:18:24;;;;;;;2.80;1.75;;;;;;;;;;5454773;26;20034;-79
2024/04/12 13:20:53;;;;;;;2.35;1.88;;;;;;;;;;5415366;26;20010;-79
2024/04/12 13:23:18;;;;;;;2.13;1.08;;;;;;;;;;5408876;26;19998;-79
2024/04/12 13:25:45;;;;;;;2.72;2.03;;;;;;;;;;5373400;26;20690;-79
2024/04/12 13:28:11;;;;;;;1.85;1.60;;;;;;;;;;5405584;26;20007;-79
2024/04/12 13:30:40;;;;;;;2.03;1.02;;;;;;;;;;5418643;26;20092;-78
2024/04/12 13:33:08;;;;;;;3.15;1.20;;;;;;;;;;5409027;26;19996;-78
2024/04/12 13:35:40;;;;;;;2.20;2.00;;;;;;;;;;5382172;26;20087;-78
2024/04/12 13:38:12;;;;;;;31.90;3.30;;;;;;;;;;5384871;26;20037;-78
2024/04/12 13:40:45;;;;;;;3.88;1.85;;;;;;;;;;5405414;26;20011;-79
2024/04/12 13:43:14;;;;;;;2.20;1.20;;;;;;;;;;5412877;26;20008;-79
2024/04/12 13:51:20;;;;;;;2.10;1.10;;;;;;;;;;5398308;26;20031;-79
2024/04/12 13:53:50;;;;;;;2.45;1.30;;;;;;;;;;5373535;26;19999;-79
2024/04/12 13:56:26;;;;;;;2.15;1.55;;;;;;;;;;5381972;26;20018;-79
2024/04/12 13:58:55;;;;;;;2.97;1.05;;;;;;;;;;5419318;26;20013;-78
2024/04/12 14:01:25;;;;;;;12.60;1.60;;;;;;;;;;5392230;26;20633;-78
2024/04/12 14:03:58;;;;;;;2.53;1.17;;;;;;;;;;5399908;26;20075;-79
2024/04/12 14:06:24;;;;;;;1.50;1.27;;;;;;;;;;5407031;26;20010;-78
2024/04/12 14:08:53;;;;;;;3.88;1.40;;;;;;;;;;5442029;26;19998;-78
2024/04/12 14:11:19;;;;;;;2.15;1.33;;;;;;;;;;5438955;26;20018;-79
2024/04/12 14:13:45;;;;;;;2.03;1.50;;;;;;;;;;5424916;26;19995;-78
2024/04/12 14:16:12;;;;;;;1.85;1.13;;;;;;;;;;5403751;26;20011;-78
2024/04/12 14:18:40;;;;;;;2.45;1.00;;;;;;;;;;5386923;26;20032;-78
2024/04/12 14:21:07;;;;;;;2.17;1.40;;;;;;;;;;5397830;26;20040;-79
2024/04/12 14:23:32;;;;;;;1.38;1.05;;;;;;;;;;5377233;26;20217;-78
2024/04/12 14:25:58;;;;;;;0.80;0.80;;;;;;;;;;5409202;26;19998;-77
2024/04/12 14:28:24;;;;;;;1.10;1.00;;;;;;;;;;5402957;26;20007;-78
2024/04/12 14:30:51;;;;;;;3.28;1.20;;;;;;;;;;5393031;26;19995;-78
2024/04/12 14:33:19;;;;;;;2.17;1.17;;;;;;;;;;5347974;26;20014;-77
2024/04/12 14:35:44;;;;;;;3.28;0.80;;;;;;;;;;5415901;26;19995;-78
2024/04/12 14:38:10;;;;;;;1.85;1.30;;;;;;;;;;5398325;26;20010;-78
2024/04/12 14:40:35;;;;;;;1.27;0.80;;;;;;;;;;5396245;26;20496;-78
2024/04/12 14:43:05;;;;;;;1.88;1.02;;;;;;;;;;5412947;26;20092;-78
2024/04/12 14:45:33;;;;;;;1.45;0.73;;;;;;;;;;5422235;26;19999;-78
2024/04/12 14:47:59;;;;;;;2.58;0.60;;;;;;;;;;5391218;26;20000;-78
2024/04/12 14:50:25;;;;;;;0.77;0.60;;;;;;;;;;5411111;26;20032;-78
2024/04/12 14:52:51;;;;;;;1.65;0.60;;;;;;;;;;5432001;26;19991;-78
2024/04/12 14:55:16;;;;;;;1.33;0.73;;;;;;;;;;5403190;26;20011;-78
2024/04/12 14:57:48;;;;;;;0.65;0.65;;;;;;;;;;5430766;26;20013;-78
2024/04/12 15:00:18;;;;;;;1.13;0.80;;;;;;;;;;5376591;26;20276;-79
2024/04/12 15:48:59;;;;;;;0.45;0.40;;;;;;;;;;5429303;26;20013;-78
2024/04/12 15:51:27;;;;;;;0.70;0.70;;;;;;;;;;5421318;26;20031;-78
2024/04/12 15:53:58;;;;;;;0.52;0.52;;;;;;;;;;5390190;26;20014;-78
2024/04/12 16:12:33;;;;;;;12.23;1.20;;;;;;;;;;5410203;26;20076;-76
2024/04/12 16:15:03;;;;;;;1.48;0.85;;;;;;;;;;5409279;26;20018;-77
2024/04/12 16:17:30;;;;;;;1.38;0.75;;;;;;;;;;5406840;26;20003;-77
2024/04/12 16:19:55;;;;;;;0.68;0.68;;;;;;;;;;5389968;26;19996;-78
2024/04/12 16:22:21;;;;;;;1.65;0.80;;;;;;;;;;5401456;26;20380;-77
2024/04/12 16:24:47;;;;;;;2.15;0.70;;;;;;;;;;5390187;26;20612;-78
2024/04/12 16:27:12;;;;;;;3.67;0.90;;;;;;;;;;5409536;26;20364;-76
2024/04/12 16:29:40;;;;;;;0.50;0.50;;;;;;;;;;5368478;26;20675;-78
2024/04/12 16:32:06;;;;;;;1.48;0.70;;;;;;;;;;5402947;26;20000;-77
2024/04/12 16:34:32;;;;;;;1.42;0.70;;;;;;;;;;5410573;26;20092;-78
2024/04/12 16:36:58;;;;;;;3.22;0.90;;;;;;;;;;5406153;26;20008;-77
2024/04/12 16:39:23;;;;;;;0.80;0.60;;;;;;;;;;5385403;26;20360;-78
2024/04/12 16:41:50;;;;;;;1.00;0.80;;;;;;;;;;5413424;26;20010;-78
2024/04/12 16:44:16;;;;;;;0.90;0.63;;;;;;;;;;5406639;26;20010;-77
2024/04/12 16:46:44;;;;;;;2.85;0.88;;;;;;;;;;5389450;26;19992;-76
2024/04/12 16:49:09;;;;;;;1.27;0.60;;;;;;;;;;5402907;26;20059;-77
2024/04/12 16:51:35;;;;;;;0.75;0.60;;;;;;;;;;5418950;26;20109;-78
2024/04/12 16:54:00;;;;;;;0.80;0.75;;;;;;;;;;5409730;26;20000;-78
2024/04/12 16:56:28;;;;;;;1.05;1.00;;;;;;;;;;5402173;26;20008;-76
2024/04/12 16:58:56;;;;;;;0.98;0.70;;;;;;;;;;5413323;26;20080;-77
2024/04/12 17:01:22;;;;;;;2.53;0.90;;;;;;;;;;5403024;26;20412;-78
2024/04/12 17:03:48;;;;;;;1.02;0.80;;;;;;;;;;5410630;26;20007;-77
2024/04/12 17:06:13;;;;;;;0.95;0.70;;;;;;;;;;5401788;26;20769;-78
2024/04/12 17:08:38;;;;;;;1.00;0.80;;;;;;;;;;5408827;26;20459;-78
2024/04/12 17:11:06;;;;;;;1.27;0.75;;;;;;;;;;5404171;26;20005;-77
2024/04/12 17:13:33;;;;;;;0.82;0.82;;;;;;;;;;5422652;26;19995;-77
2024/04/12 17:16:02;;;;;;;0.98;0.70;;;;;;;;;;5409565;26;20082;-77
2024/04/12 17:18:31;;;;;;;0.50;0.50;;;;;;;;;;5407134;26;19999;-77
2024/04/12 17:21:01;;;;;;;0.70;0.70;;;;;;;;;;5422475;26;20375;-76
2024/04/12 17:23:28;;;;;;;0.70;0.70;;;;;;;;;;5404763;26;20015;-76